Wetterstation Vordersexau
Wetterdaten: Woche 07.11.11 - 13.11.11 (KW45)
Datum Zeit Temp. A. Feuchte A. Luftdruck Regen Wind Richtung Taupunkt Windchill Windben
07.11.2011 00:00 6,8 C 79 % 1011,4 hPa 0,0 l/m 0,0 km/h N-NO 3,4 C 6,8 C 0,0 km/h
07.11.2011 01:00 7,5 C 77 % 1011,5 hPa 0,0 l/m 0,0 km/h O-SO 3,7 C 7,5 C 0,0 km/h
07.11.2011 02:00 7,9 C 76 % 1011,9 hPa 0,0 l/m 0,0 km/h O-SO 3,9 C 7,9 C 0,0 km/h
07.11.2011 03:00 8,1 C 76 % 1012,0 hPa 0,0 l/m 0,0 km/h O-SO 4,1 C 8,1 C 0,0 km/h
07.11.2011 04:00 8,3 C 75 % 1012,2 hPa 0,0 l/m 0,0 km/h O-SO 4,1 C 8,3 C 0,0 km/h
07.11.2011 05:00 8,3 C 75 % 1012,3 hPa 0,0 l/m 0,0 km/h NW 4,1 C 8,3 C 0,0 km/h
07.11.2011 06:00 8,2 C 74 % 1011,9 hPa 0,0 l/m 0,0 km/h W 3,8 C 8,2 C 0,0 km/h
07.11.2011 07:00 8,1 C 74 % 1012,5 hPa 0,4 l/m 0,0 km/h W-NW 3,8 C 8,1 C 0,0 km/h
07.11.2011 08:00 8,1 C 73 % 1012,8 hPa 0,0 l/m 0,0 km/h S 3,6 C 8,1 C 0,0 km/h
07.11.2011 09:00 8,5 C 72 % 1013,0 hPa 0,0 l/m 0,0 km/h W-NW 3,7 C 8,5 C 0,0 km/h
07.11.2011 10:00 9,1 C 71 % 1013,2 hPa 0,0 l/m 0,0 km/h W 4,1 C 9,1 C 0,0 km/h
07.11.2011 11:00 9,3 C 71 % 1013,2 hPa 0,0 l/m 0,0 km/h W 4,3 C 9,3 C 0,0 km/h
07.11.2011 12:00 9,4 C 73 % 1013,0 hPa 0,0 l/m 0,0 km/h W 4,8 C 9,4 C 0,0 km/h
07.11.2011 13:00 9,4 C 73 % 1013,0 hPa 0,0 l/m 0,0 km/h W-NW 4,8 C 9,4 C 0,0 km/h
07.11.2011 14:00 9,6 C 76 % 1012,8 hPa 0,0 l/m 0,0 km/h W-NW 5,6 C 9,6 C 0,0 km/h
07.11.2011 15:00 9,9 C 80 % 1013,0 hPa 0,0 l/m 0,0 km/h W-NW 6,6 C 9,9 C 0,0 km/h
07.11.2011 16:00 9,8 C 82 % 1013,2 hPa 0,0 l/m 0,0 km/h W-NW 6,9 C 9,8 C 0,0 km/h
07.11.2011 17:00 9,3 C 82 % 1013,5 hPa 0,0 l/m 0,0 km/h W-NW 6,4 C 9,3 C 0,0 km/h
07.11.2011 18:00 9,2 C 82 % 1013,6 hPa 0,0 l/m 0,0 km/h W 6,3 C 9,2 C 0,0 km/h
07.11.2011 19:00 8,9 C 80 % 1013,5 hPa 0,0 l/m 0,0 km/h W 5,6 C 8,9 C 0,0 km/h
07.11.2011 20:00 8,6 C 80 % 1014,2 hPa 0,0 l/m 0,0 km/h W-NW 5,3 C 8,6 C 0,0 km/h
07.11.2011 21:00 8,4 C 79 % 1014,0 hPa 0,0 l/m 0,0 km/h O-NO 5,0 C 8,4 C 0,0 km/h
07.11.2011 22:00 8,7 C 79 % 1014,0 hPa 0,0 l/m 0,0 km/h SO 5,3 C 8,7 C 0,0 km/h
07.11.2011 23:00 7,4 C 80 % 1014,1 hPa 0,0 l/m 0,0 km/h O-SO 4,2 C 7,4 C 0,0 km/h
08.11.2011 00:00 7,4 C 79 % 1014,1 hPa 0,0 l/m 0,0 km/h O-SO 4,0 C 7,4 C 0,0 km/h
08.11.2011 01:00 7,5 C 78 % 1014,3 hPa 0,0 l/m 0,0 km/h N-NW 3,9 C 7,5 C 0,0 km/h
08.11.2011 02:00 7,5 C 77 % 1014,2 hPa 0,0 l/m 0,0 km/h N-NO 3,7 C 7,5 C 0,0 km/h
08.11.2011 03:00 7,3 C 77 % 1014,5 hPa 0,0 l/m 0,0 km/h O-NO 3,5 C 7,3 C 0,0 km/h
08.11.2011 04:00 7,1 C 77 % 1014,3 hPa 0,4 l/m 0,0 km/h NW 3,3 C 7,1 C 0,0 km/h
08.11.2011 05:00 6,4 C 77 % 1013,8 hPa 0,0 l/m 0,0 km/h N-NO 2,7 C 6,4 C 0,0 km/h
08.11.2011 06:00 6,6 C 76 % 1014,0 hPa 0,0 l/m 0,0 km/h NW 2,7 C 6,6 C 0,0 km/h
08.11.2011 07:00 6,8 C 75 % 1014,1 hPa 0,0 l/m 0,0 km/h N-NW 2,7 C 6,8 C 0,0 km/h
08.11.2011 08:00 7,2 C 74 % 1014,4 hPa 0,0 l/m 0,0 km/h N-NW 2,9 C 7,2 C 0,0 km/h
08.11.2011 09:00 7,8 C 74 % 1015,1 hPa 0,0 l/m 0,0 km/h NW 3,5 C 7,8 C 0,0 km/h
08.11.2011 10:00 8,7 C 72 % 1014,8 hPa 0,0 l/m 0,0 km/h W-NW 3,9 C 8,7 C 0,0 km/h
08.11.2011 11:00 8,8 C 79 % 1015,2 hPa 0,0 l/m 0,0 km/h W-NW 5,4 C 8,8 C 0,0 km/h
08.11.2011 12:00 9,6 C 83 % 1015,2 hPa 0,0 l/m 3,2 km/h N-NO 6,9 C 9,6 C 1,8 km/h
08.11.2011 13:00 9,0 C 86 % 1015,3 hPa 0,0 l/m 3,2 km/h NO 6,8 C 9,0 C 1,8 km/h
08.11.2011 14:00 8,8 C 86 % 1015,3 hPa 0,0 l/m 0,0 km/h N-NW 6,6 C 8,8 C 0,0 km/h
08.11.2011 15:00 9,3 C 85 % 1015,4 hPa 0,0 l/m 0,0 km/h N-NW 6,9 C 9,3 C 0,0 km/h
08.11.2011 16:00 8,9 C 85 % 1015,4 hPa 0,0 l/m 0,0 km/h N 6,5 C 8,9 C 0,0 km/h
08.11.2011 17:00 8,6 C 84 % 1015,9 hPa 0,0 l/m 0,0 km/h NW 6,1 C 8,6 C 0,0 km/h
08.11.2011 18:00 8,2 C 83 % 1016,4 hPa 0,0 l/m 0,0 km/h N-NO 5,5 C 8,2 C 0,0 km/h
08.11.2011 19:00 8,1 C 81 % 1016,6 hPa 0,0 l/m 0,0 km/h W-NW 5,0 C 8,1 C 0,0 km/h
08.11.2011 20:00 8,1 C 80 % 1016,7 hPa 0,0 l/m 0,0 km/h N-NW 4,9 C 8,1 C 0,0 km/h
08.11.2011 21:00 8,2 C 78 % 1016,8 hPa 0,0 l/m 0,0 km/h W 4,6 C 8,2 C 0,0 km/h
08.11.2011 22:00 8,1 C 78 % 1017,0 hPa 0,0 l/m 0,0 km/h SO 4,5 C 8,1 C 0,0 km/h
08.11.2011 23:00 8,1 C 78 % 1017,2 hPa 0,0 l/m 1,9 km/h O 4,5 C 8,1 C 1,1 km/h
09.11.2011 00:00 8,0 C 78 % 1017,1 hPa 0,0 l/m 0,0 km/h NO 4,4 C 8,0 C 0,0 km/h
09.11.2011 01:00 7,9 C 78 % 1017,5 hPa 0,0 l/m 0,0 km/h SO 4,3 C 7,9 C 0,0 km/h
09.11.2011 02:00 7,9 C 79 % 1017,9 hPa 0,0 l/m 0,0 km/h SO 4,5 C 7,9 C 0,0 km/h
09.11.2011 03:00 7,8 C 79 % 1017,5 hPa 0,0 l/m 0,0 km/h SO 4,4 C 7,8 C 0,0 km/h
09.11.2011 04:00 7,4 C 79 % 1017,9 hPa 0,0 l/m 0,0 km/h SO 4,0 C 7,4 C 0,0 km/h
09.11.2011 05:00 7,3 C 80 % 1018,1 hPa 0,0 l/m 0,0 km/h O-NO 4,1 C 7,3 C 0,0 km/h
09.11.2011 06:00 7,1 C 81 % 1018,2 hPa 0,0 l/m 0,0 km/h SO 4,1 C 7,1 C 0,0 km/h
09.11.2011 07:00 6,8 C 82 % 1018,5 hPa 0,0 l/m 0,0 km/h SO 3,9 C 6,8 C 0,0 km/h
09.11.2011 08:00 6,9 C 82 % 1019,2 hPa 0,0 l/m 0,0 km/h SO 4,0 C 6,9 C 0,0 km/h
09.11.2011 09:00 7,4 C 82 % 1019,4 hPa 0,0 l/m 1,9 km/h N 4,5 C 7,4 C 1,1 km/h
09.11.2011 10:00 7,8 C 85 % 1019,6 hPa 0,0 l/m 0,0 km/h O-NO 5,4 C 7,8 C 0,0 km/h
09.11.2011 11:00 8,3 C 86 % 1019,7 hPa 0,0 l/m 0,0 km/h W 6,1 C 8,3 C 0,0 km/h
09.11.2011 12:00 8,9 C 87 % 1019,1 hPa 0,0 l/m 0,0 km/h W 6,9 C 8,9 C 0,0 km/h
09.11.2011 13:00 8,9 C 87 % 1019,3 hPa 0,0 l/m 0,0 km/h W 6,9 C 8,9 C 0,0 km/h
09.11.2011 14:00 8,8 C 87 % 1019,3 hPa 0,0 l/m 0,0 km/h W 6,8 C 8,8 C 0,0 km/h
09.11.2011 15:00 8,4 C 86 % 1019,4 hPa 0,0 l/m 0,0 km/h SO 6,2 C 8,4 C 0,0 km/h
09.11.2011 16:00 8,0 C 86 % 1019,4 hPa 0,0 l/m 0,0 km/h W 5,8 C 8,0 C 0,0 km/h
09.11.2011 17:00 7,9 C 85 % 1020,1 hPa 0,0 l/m 0,0 km/h W 5,5 C 7,9 C 0,0 km/h
09.11.2011 18:00 7,6 C 83 % 1020,1 hPa 0,0 l/m 0,0 km/h NW 4,9 C 7,6 C 0,0 km/h
09.11.2011 19:00 7,3 C 82 % 1020,1 hPa 0,0 l/m 0,0 km/h N-NW 4,4 C 7,3 C 0,0 km/h
09.11.2011 20:00 7,1 C 81 % 1020,6 hPa 0,0 l/m 0,0 km/h NW 4,1 C 7,1 C 0,0 km/h
09.11.2011 21:00 7,0 C 79 % 1020,7 hPa 0,0 l/m 0,0 km/h SO 3,6 C 7,0 C 0,0 km/h
09.11.2011 22:00 7,0 C 79 % 1020,7 hPa 0,0 l/m 0,0 km/h SW 3,6 C 7,0 C 0,0 km/h
09.11.2011 23:00 6,9 C 78 % 1020,6 hPa 0,0 l/m 0,0 km/h SW 3,3 C 6,9 C 0,0 km/h
10.11.2011 00:00 6,9 C 77 % 1020,6 hPa 0,0 l/m 1,9 km/h S-SW 3,2 C 6,9 C 1,1 km/h
10.11.2011 01:00 6,5 C 78 % 1020,2 hPa 0,0 l/m 1,9 km/h S-SO 2,9 C 6,5 C 1,1 km/h
10.11.2011 02:00 6,4 C 78 % 1020,2 hPa 0,0 l/m 0,0 km/h S-SO 2,8 C 6,4 C 0,0 km/h
10.11.2011 03:00 6,2 C 78 % 1019,7 hPa 0,0 l/m 0,0 km/h S-SO 2,7 C 6,2 C 0,0 km/h
10.11.2011 04:00 6,1 C 78 % 1019,7 hPa 0,0 l/m 0,0 km/h SW 2,6 C 6,1 C 0,0 km/h
10.11.2011 05:00 5,9 C 78 % 1019,7 hPa 0,0 l/m 0,0 km/h S-SO 2,4 C 5,9 C 0,0 km/h
10.11.2011 06:00 5,9 C 78 % 1019,6 hPa 0,0 l/m 0,0 km/h S-SO 2,4 C 5,9 C 0,0 km/h
10.11.2011 07:00 5,6 C 79 % 1019,8 hPa 0,0 l/m 1,9 km/h SO 2,3 C 5,6 C 1,1 km/h
10.11.2011 08:00 5,6 C 80 % 1020,3 hPa 0,0 l/m 1,3 km/h SO 2,4 C 5,6 C 0,7 km/h
10.11.2011 09:00 5,8 C 81 % 1020,5 hPa 0,0 l/m 1,9 km/h O-NO 2,8 C 5,8 C 1,1 km/h
10.11.2011 10:00 6,6 C 83 % 1020,5 hPa 0,0 l/m 0,0 km/h SO 3,9 C 6,6 C 0,0 km/h
10.11.2011 11:00 6,8 C 85 % 1020,2 hPa 0,0 l/m 0,0 km/h SO 4,5 C 6,8 C 0,0 km/h
10.11.2011 12:00 7,6 C 87 % 1019,7 hPa 0,0 l/m 0,0 km/h W-NW 5,6 C 7,6 C 0,0 km/h
10.11.2011 13:00 7,6 C 87 % 1019,4 hPa 0,0 l/m 0,0 km/h W 5,6 C 7,6 C 0,0 km/h
10.11.2011 14:00 7,3 C 87 % 1019,1 hPa 0,0 l/m 0,0 km/h W 5,3 C 7,3 C 0,0 km/h
10.11.2011 15:00 6,9 C 86 % 1019,1 hPa 0,0 l/m 0,0 km/h SW 4,7 C 6,9 C 0,0 km/h
10.11.2011 16:00 6,5 C 86 % 1019,0 hPa 0,0 l/m 0,0 km/h S-SW 4,3 C 6,5 C 0,0 km/h
10.11.2011 17:00 6,4 C 85 % 1018,9 hPa 0,0 l/m 0,0 km/h W 4,1 C 6,4 C 0,0 km/h
10.11.2011 18:00 6,3 C 84 % 1019,3 hPa 0,0 l/m 0,0 km/h N-NO 3,8 C 6,3 C 0,0 km/h
10.11.2011 19:00 6,2 C 84 % 1019,5 hPa 0,0 l/m 0,0 km/h NW 3,7 C 6,2 C 0,0 km/h
10.11.2011 20:00 6,1 C 83 % 1019,4 hPa 0,0 l/m 0,0 km/h W 3,4 C 6,1 C 0,0 km/h
10.11.2011 21:00 5,9 C 83 % 1019,3 hPa 0,0 l/m 1,3 km/h N 3,2 C 5,9 C 0,7 km/h
11.11.2011 06:00 5,1 C 84 % 1019,4 hPa 0,0 l/m 0,0 km/h SO 2,6 C 5,1 C 0,0 km/h
11.11.2011 07:00 3,1 C 86 % 1019,8 hPa 0,0 l/m 0,0 km/h SO 1,0 C 3,1 C 0,0 km/h
11.11.2011 08:00 4,5 C 84 % 1020,3 hPa 0,0 l/m 3,9 km/h O-NO 2,0 C 4,5 C 2,2 km/h
11.11.2011 09:00 6,8 C 86 % 1020,5 hPa 0,0 l/m 0,0 km/h N-NW 4,6 C 6,8 C 0,0 km/h
11.11.2011 10:00 7,8 C 85 % 1020,9 hPa 0,0 l/m 0,0 km/h NW 5,4 C 7,8 C 0,0 km/h
11.11.2011 11:00 8,5 C 82 % 1020,7 hPa 0,0 l/m 0,0 km/h W-NW 5,6 C 8,5 C 0,0 km/h
11.11.2011 12:00 8,8 C 81 % 1020,6 hPa 0,0 l/m 9,1 km/h N-NO 5,7 C 6,8 C 5,0 km/h
11.11.2011 13:00 9,6 C 78 % 1020,3 hPa 0,0 l/m 0,0 km/h W 6,0 C 9,6 C 0,0 km/h
11.11.2011 14:00 10,9 C 73 % 1019,9 hPa 0,0 l/m 0,0 km/h W-NW 6,3 C 10,9 C 0,0 km/h
11.11.2011 15:00 8,3 C 79 % 1020,4 hPa 0,0 l/m 1,9 km/h W 4,9 C 8,3 C 1,1 km/h
11.11.2011 16:00 7,4 C 82 % 1021,0 hPa 0,0 l/m 0,0 km/h N-NW 4,5 C 7,4 C 0,0 km/h
11.11.2011 17:00 6,8 C 84 % 1021,1 hPa 0,0 l/m 0,0 km/h N 4,3 C 6,8 C 0,0 km/h
11.11.2011 18:00 4,6 C 85 % 1021,7 hPa 0,0 l/m 0,0 km/h O-NO 2,3 C 4,6 C 0,0 km/h
11.11.2011 19:00 3,6 C 87 % 1022,1 hPa 0,0 l/m 0,0 km/h O-NO 1,6 C 3,6 C 0,0 km/h
11.11.2011 20:00 3,6 C 87 % 1022,5 hPa 0,0 l/m 0,0 km/h O 1,6 C 3,6 C 0,0 km/h
11.11.2011 21:00 3,6 C 86 % 1023,2 hPa 0,0 l/m 0,0 km/h O-SO 1,5 C 3,6 C 0,0 km/h
11.11.2011 22:00 3,6 C 85 % 1023,8 hPa 0,0 l/m 0,0 km/h O-SO 1,3 C 3,6 C 0,0 km/h
11.11.2011 23:00 2,4 C 86 % 1024,1 hPa 0,0 l/m 0,0 km/h O-NO 0,3 C 2,4 C 0,0 km/h
12.11.2011 00:00 1,9 C 86 % 1024,6 hPa 0,0 l/m 0,0 km/h O-NO -0,2 C 1,9 C 0,0 km/h
12.11.2011 01:00 1,4 C 85 % 1024,9 hPa 0,0 l/m 0,0 km/h O-SO -0,8 C 1,4 C 0,0 km/h
12.11.2011 02:00 0,9 C 85 % 1025,7 hPa 0,0 l/m 0,0 km/h O-SO -1,3 C 0,9 C 0,0 km/h
12.11.2011 03:00 1,2 C 85 % 1025,5 hPa 0,0 l/m 0,0 km/h SO -1,0 C 1,2 C 0,0 km/h
12.11.2011 04:00 0,8 C 85 % 1025,8 hPa 0,0 l/m 0,0 km/h NO -1,4 C 0,8 C 0,0 km/h
12.11.2011 05:00 0,8 C 84 % 1026,4 hPa 0,0 l/m 0,0 km/h O-NO -1,6 C 0,8 C 0,0 km/h
12.11.2011 06:00 0,7 C 84 % 1026,8 hPa 0,0 l/m 0,0 km/h NO -1,7 C 0,7 C 0,0 km/h
12.11.2011 07:00 0,5 C 84 % 1027,4 hPa 0,0 l/m 0,0 km/h O-SO -1,9 C 0,5 C 0,0 km/h
12.11.2011 08:00 2,0 C 81 % 1027,9 hPa 0,0 l/m 0,0 km/h O -0,9 C 2,0 C 0,0 km/h
12.11.2011 09:00 8,6 C 86 % 1028,4 hPa 0,0 l/m 0,0 km/h S-SW 6,4 C 8,6 C 0,0 km/h
12.11.2011 10:00 13,3 C 76 % 1028,2 hPa 0,0 l/m 0,0 km/h W 9,2 C 13,3 C 0,0 km/h
12.11.2011 11:00 14,3 C 69 % 1028,1 hPa 0,0 l/m 0,0 km/h W-NW 8,7 C 14,3 C 0,0 km/h
12.11.2011 12:00 14,6 C 68 % 1027,8 hPa 0,0 l/m 0,0 km/h O-NO 8,8 C 14,6 C 0,0 km/h
12.11.2011 13:00 15,3 C 66 % 1027,8 hPa 0,0 l/m 0,0 km/h W-NW 9,0 C 15,3 C 0,0 km/h
12.11.2011 14:00 17,4 C 60 % 1027,6 hPa 0,0 l/m 0,0 km/h W-NW 9,6 C 17,4 C 0,0 km/h
12.11.2011 15:00 17,3 C 59 % 1027,7 hPa 0,0 l/m 0,0 km/h W-NW 9,2 C 17,3 C 0,0 km/h
12.11.2011 16:00 13,4 C 67 % 1028,1 hPa 0,0 l/m 0,0 km/h W-SW 7,4 C 13,4 C 0,0 km/h
12.11.2011 17:00 7,0 C 80 % 1028,4 hPa 0,0 l/m 0,0 km/h W-SW 3,8 C 7,0 C 0,0 km/h
12.11.2011 18:00 4,9 C 84 % 1028,9 hPa 0,0 l/m 0,0 km/h W-SW 2,4 C 4,9 C 0,0 km/h
12.11.2011 19:00 4,3 C 86 % 1029,2 hPa 0,0 l/m 0,0 km/h W 2,2 C 4,3 C 0,0 km/h
12.11.2011 20:00 3,8 C 86 % 1029,1 hPa 0,0 l/m 0,0 km/h NO 1,7 C 3,8 C 0,0 km/h
12.11.2011 21:00 3,2 C 86 % 1029,5 hPa 0,0 l/m 0,0 km/h NO 1,1 C 3,2 C 0,0 km/h
12.11.2011 22:00 2,4 C 86 % 1029,4 hPa 0,0 l/m 0,0 km/h N-NO 0,3 C 2,4 C 0,0 km/h
12.11.2011 23:00 3,2 C 85 % 1029,3 hPa 0,0 l/m 0,0 km/h N-NO 0,9 C 3,2 C 0,0 km/h
13.11.2011 00:00 4,2 C 84 % 1029,2 hPa 0,0 l/m 0,0 km/h N-NO 1,7 C 4,2 C 0,0 km/h
13.11.2011 01:00 4,6 C 83 % 1029,4 hPa 0,0 l/m 0,0 km/h W-NW 2,0 C 4,6 C 0,0 km/h
13.11.2011 02:00 4,9 C 82 % 1029,1 hPa 0,0 l/m 0,0 km/h W-NW 2,1 C 4,9 C 0,0 km/h
13.11.2011 03:00 4,8 C 81 % 1029,0 hPa 0,0 l/m 0,0 km/h NW 1,8 C 4,8 C 0,0 km/h
13.11.2011 04:00 4,5 C 80 % 1029,3 hPa 0,0 l/m 0,0 km/h W-NW 1,4 C 4,5 C 0,0 km/h
13.11.2011 05:00 4,2 C 80 % 1029,4 hPa 0,4 l/m 0,0 km/h W-NW 1,1 C 4,2 C 0,0 km/h
13.11.2011 06:00 4,2 C 79 % 1029,6 hPa 0,0 l/m 0,0 km/h W-NW 0,9 C 4,2 C 0,0 km/h
13.11.2011 07:00 4,1 C 79 % 1030,1 hPa 0,0 l/m 0,0 km/h W-NW 0,8 C 4,1 C 0,0 km/h
13.11.2011 08:00 4,6 C 78 % 1030,2 hPa 0,0 l/m 0,0 km/h W-NW 1,1 C 4,6 C 0,0 km/h
13.11.2011 09:00 4,8 C 77 % 1030,3 hPa 0,0 l/m 0,0 km/h W-NW 1,1 C 4,8 C 0,0 km/h
13.11.2011 10:00 5,3 C 76 % 1030,4 hPa 0,0 l/m 0,0 km/h W-SW 1,4 C 5,3 C 0,0 km/h
13.11.2011 11:00 6,1 C 76 % 1030,3 hPa 0,0 l/m 0,0 km/h W-NW 2,2 C 6,1 C 0,0 km/h
13.11.2011 12:00 6,8 C 80 % 1029,4 hPa 0,0 l/m 0,0 km/h W-NW 3,6 C 6,8 C 0,0 km/h
13.11.2011 13:00 7,3 C 86 % 1029,0 hPa 0,0 l/m 0,0 km/h W-SW 5,1 C 7,3 C 0,0 km/h
13.11.2011 14:00 6,8 C 87 % 1028,8 hPa 0,0 l/m 0,0 km/h NW 4,8 C 6,8 C 0,0 km/h
13.11.2011 15:00 6,4 C 87 % 1028,9 hPa 0,0 l/m 0,0 km/h W 4,4 C 6,4 C 0,0 km/h
13.11.2011 16:00 6,1 C 87 % 1028,9 hPa 0,0 l/m 0,0 km/h W-NW 4,1 C 6,1 C 0,0 km/h
13.11.2011 17:00 5,8 C 87 % 1028,7 hPa 0,0 l/m 0,0 km/h W-NW 3,8 C 5,8 C 0,0 km/h
13.11.2011 18:00 5,6 C 86 % 1028,7 hPa 0,0 l/m 0,0 km/h W-NW 3,4 C 5,6 C 0,0 km/h
13.11.2011 19:00 5,5 C 85 % 1028,4 hPa 0,0 l/m 0,0 km/h W-NW 3,2 C 5,5 C 0,0 km/h
13.11.2011 20:00 5,4 C 85 % 1028,3 hPa 0,0 l/m 0,0 km/h N 3,1 C 5,4 C 0,0 km/h
13.11.2011 21:00 5,3 C 85 % 1027,9 hPa 0,0 l/m 0,0 km/h W-SW 3,0 C 5,3 C 0,0 km/h
13.11.2011 22:00 5,3 C 84 % 1027,7 hPa 0,0 l/m 0,0 km/h O-SO 2,8 C 5,3 C 0,0 km/h
13.11.2011 23:00 5,1 C 84 % 1027,6 hPa 0,0 l/m 0,0 km/h O-SO 2,6 C 5,1 C 0,0 km/h
Min-Datum _ 12.11.11 12.11.11 07.11.11 - 07.11.11 - 12.11.11 12.11.11 07.11.11
_ Min-Zeit 07:30 15:30 00:30 - 00:30 - 07:30 07:30 00:30
Minimum _ 0,5 C 59 % 1011,4 hPa - 0,0 km/h - -1,9 C 0,5 C 0,0 km/h
Max-Datum _ 12.11.11 09.11.11 13.11.11 07.11.11 11.11.11 - 12.11.11 12.11.11 11.11.11
_ Max-Zeit 14:30 12:30 10:30 07:30 12:30 - 14:30 14:30 12:30
Maximum _ 17,4 C 87 % 1030,4 hPa 0,4 l/m 9,1 km/h
N-NO
- 9,6 C 17,4 C 5,0 km/h
N-NO
Durchschnitt _ 7,0 C 81 % 1020,7 hPa #1,1 l/m 0,2 km/h W-NW 3,8 C 7,0 C 0,1 km/h
www.sexauwetter.de